createdAt,value
2022-10-05T00:00:55.949Z,86.65
2022-10-05T00:03:27.613Z,85.74
2022-10-05T00:05:54.781Z,85.92
2022-10-05T00:08:31.872Z,85.57
2022-10-05T00:10:59.680Z,85.32
2022-10-05T00:13:30.076Z,85.77
2022-10-05T00:16:15.259Z,85.45
2022-10-05T00:18:46.565Z,85.45
2022-10-05T00:21:26.368Z,85.70
2022-10-05T00:23:57.700Z,85.18
2022-10-05T00:26:33.362Z,85.10
2022-10-05T00:29:02.770Z,85.09
2022-10-05T00:31:32.950Z,84.88
2022-10-05T00:34:00.419Z,84.88
2022-10-05T00:36:27.700Z,84.91
2022-10-05T00:38:55.560Z,84.38
2022-10-05T00:41:40.848Z,84.84
2022-10-05T00:44:26.334Z,85.76
2022-10-05T00:46:59.449Z,85.38
2022-10-05T00:49:38.590Z,85.38
2022-10-05T00:52:22.269Z,85.34
2022-10-05T00:55:03.414Z,85.50
2022-10-05T00:57:57.293Z,84.80
2022-10-05T01:00:27.361Z,84.53
2022-10-05T01:03:08.885Z,84.79
2022-10-05T01:06:15.018Z,84.80
2022-10-05T01:08:54.207Z,84.96
2022-10-05T01:11:30.802Z,84.99
2022-10-05T01:14:05.884Z,85.09
2022-10-05T01:16:50.621Z,84.90
2022-10-05T01:19:51.259Z,84.83
2022-10-05T01:22:34.018Z,84.88
2022-10-05T01:25:27.079Z,84.98
2022-10-05T01:27:59.576Z,86.65
2022-10-05T01:30:28.312Z,86.59
2022-10-05T01:33:01.614Z,86.62
2022-10-05T01:35:47.053Z,85.92
2022-10-05T01:38:42.916Z,85.91
2022-10-05T01:41:15.986Z,87.22
2022-10-05T01:43:49.443Z,87.24
2022-10-05T01:46:16.889Z,88.73
2022-10-05T01:48:56.007Z,88.32
2022-10-05T01:51:26.078Z,88.03
2022-10-05T01:54:16.653Z,87.23
2022-10-05T01:56:55.312Z,86.82
2022-10-05T01:59:59.691Z,87.48
2022-10-05T02:02:32.075Z,87.61
2022-10-05T02:05:08.347Z,87.33
2022-10-05T02:08:16.933Z,86.79
2022-10-05T02:10:53.673Z,86.40
2022-10-05T02:13:47.593Z,86.29
2022-10-05T02:16:17.828Z,86.31
2022-10-05T02:19:03.684Z,86.75
2022-10-05T02:21:34.295Z,86.21
2022-10-05T02:24:08.347Z,86.04
2022-10-05T02:26:38.068Z,86.04
2022-10-05T02:29:11.625Z,86.29
2022-10-05T02:31:52.877Z,85.75
2022-10-05T02:34:27.093Z,85.73
2022-10-05T02:37:22.378Z,85.51
2022-10-05T02:40:16.484Z,85.54
2022-10-05T02:43:18.523Z,86.00
2022-10-05T02:45:49.112Z,85.42
2022-10-05T02:48:58.269Z,85.75
2022-10-05T02:51:40.935Z,85.92
2022-10-05T02:54:53.313Z,85.41
2022-10-05T02:57:34.475Z,85.33
2022-10-05T03:00:14.455Z,85.52
2022-10-05T03:02:56.077Z,85.38
2022-10-05T03:05:41.994Z,85.83
2022-10-05T03:08:38.901Z,85.52
2022-10-05T03:11:23.506Z,86.05
2022-10-05T03:14:14.390Z,86.27
2022-10-05T03:16:53.952Z,85.79
2022-10-05T03:19:58.870Z,86.29
2022-10-05T03:22:53.600Z,85.85
2022-10-05T03:25:41.191Z,86.01
2022-10-05T03:28:17.643Z,86.03
2022-10-05T03:31:13.653Z,86.00
2022-10-05T03:33:48.166Z,85.63
2022-10-05T03:36:30.465Z,85.13
2022-10-05T03:39:40.998Z,85.38
2022-10-05T03:42:29.804Z,85.90
2022-10-05T03:45:27.494Z,85.69
2022-10-05T03:48:08.728Z,86.18
2022-10-05T03:51:01.104Z,85.96
2022-10-05T03:53:54.755Z,86.35
2022-10-05T03:56:47.618Z,86.15
2022-10-05T03:59:17.567Z,86.41
2022-10-05T04:01:52.098Z,86.64
2022-10-05T04:04:26.593Z,86.97
2022-10-05T04:06:55.708Z,87.39
2022-10-05T04:09:30.603Z,87.72
2022-10-05T04:12:30.499Z,87.77
2022-10-05T04:15:03.865Z,88.19
2022-10-05T04:17:42.466Z,88.03
2022-10-05T04:20:22.685Z,87.75
2022-10-05T04:23:13.223Z,88.00
2022-10-05T04:25:51.959Z,88.33
2022-10-05T04:28:32.315Z,88.18
2022-10-05T04:31:05.609Z,89.47
2022-10-05T04:33:33.567Z,89.00
2022-10-05T04:36:04.403Z,88.83
2022-10-05T04:38:50.260Z,88.63
2022-10-05T04:41:42.379Z,88.02
2022-10-05T04:44:34.998Z,88.27
2022-10-05T04:47:39.404Z,88.31
2022-10-05T04:50:44.357Z,88.43
2022-10-05T04:53:17.795Z,87.83
2022-10-05T04:55:55.346Z,87.32
2022-10-05T04:58:42.589Z,87.28
2022-10-05T05:01:42.713Z,87.42
2022-10-05T05:04:48.278Z,87.63
2022-10-05T05:07:43.619Z,87.68
2022-10-05T05:10:32.944Z,87.48
2022-10-05T05:13:15.250Z,87.86
2022-10-05T05:16:01.506Z,87.36
2022-10-05T05:18:47.605Z,86.83
2022-10-05T05:21:20.967Z,87.01
2022-10-05T05:23:57.852Z,87.60
2022-10-05T05:26:51.480Z,86.98
2022-10-05T05:29:23.726Z,87.42
2022-10-05T05:32:06.092Z,87.31
2022-10-05T05:35:05.313Z,87.33
2022-10-05T05:37:39.701Z,87.01
2022-10-05T05:40:16.004Z,86.84
2022-10-05T05:42:57.851Z,86.60
2022-10-05T05:45:42.512Z,86.49
2022-10-05T05:48:40.783Z,85.78
2022-10-05T05:51:14.311Z,85.39
2022-10-05T05:53:55.217Z,85.57
2022-10-05T05:56:32.099Z,86.30
2022-10-05T05:59:33.357Z,88.22
2022-10-05T06:02:09.454Z,86.43
2022-10-05T06:04:45.153Z,85.68
2022-10-05T06:07:18.176Z,85.70
2022-10-05T06:09:54.665Z,84.90
2022-10-05T06:12:41.682Z,84.81
2022-10-05T06:15:30.999Z,84.69
2022-10-05T06:18:02.550Z,84.78
2022-10-05T06:20:42.115Z,84.77
2022-10-05T06:23:34.212Z,84.33
2022-10-05T06:26:10.460Z,84.41
2022-10-05T06:28:39.053Z,84.48
2022-10-05T06:31:58.861Z,84.02
2022-10-05T06:34:42.039Z,82.91
2022-10-05T06:37:23.161Z,82.85
2022-10-05T06:40:16.578Z,82.16
2022-10-05T06:42:49.991Z,81.78
2022-10-05T06:46:03.081Z,81.13
2022-10-05T06:49:41.156Z,81.42
2022-10-05T06:52:36.307Z,80.61
2022-10-05T06:55:30.426Z,80.74
2022-10-05T06:58:02.778Z,80.51
2022-10-05T07:00:42.939Z,80.70
2022-10-05T07:03:29.196Z,81.40
2022-10-05T07:06:16.886Z,82.27
2022-10-05T07:09:14.837Z,81.35
2022-10-05T07:12:08.270Z,80.53
2022-10-05T07:14:46.565Z,80.28
2022-10-05T07:17:26.773Z,78.98
2022-10-05T07:20:23.385Z,79.02
2022-10-05T07:23:11.061Z,77.11
2022-10-05T07:25:44.342Z,77.37
2022-10-05T07:28:19.766Z,77.65
2022-10-05T07:31:00.566Z,77.40
2022-10-05T07:33:43.295Z,77.49
2022-10-05T07:36:38.505Z,75.66
2022-10-05T07:39:13.332Z,75.58
2022-10-05T07:41:52.676Z,73.41
2022-10-05T07:44:45.758Z,73.43
2022-10-05T07:47:27.880Z,73.90
2022-10-05T07:50:04.247Z,73.07
2022-10-05T07:52:40.032Z,72.58
2022-10-05T07:55:18.477Z,71.72
2022-10-05T07:57:57.800Z,71.97
2022-10-05T08:00:49.092Z,70.88
2022-10-05T08:03:38.827Z,70.42
2022-10-05T08:06:11.080Z,69.11
2022-10-05T08:08:38.389Z,68.32
2022-10-05T08:11:15.165Z,68.14
2022-10-05T08:14:02.445Z,67.52
2022-10-05T08:16:35.343Z,67.99
2022-10-05T08:19:10.276Z,68.05
2022-10-05T08:21:41.809Z,67.64
2022-10-05T08:24:46.288Z,67.01
2022-10-05T08:27:19.901Z,67.03
2022-10-05T08:29:57.183Z,67.13
2022-10-05T08:32:27.835Z,66.18
2022-10-05T08:35:27.353Z,66.61
2022-10-05T08:37:55.332Z,66.11
2022-10-05T08:40:25.525Z,64.88
2022-10-05T08:43:39.823Z,64.21
2022-10-05T08:46:25.648Z,64.14
2022-10-05T08:49:24.774Z,64.46
2022-10-05T08:52:22.728Z,63.19
2022-10-05T08:55:08.628Z,61.86
2022-10-05T08:58:13.365Z,61.24
2022-10-05T09:00:55.263Z,61.15
2022-10-05T09:04:00.362Z,61.41
2022-10-05T09:06:45.903Z,60.68
2022-10-05T09:09:31.214Z,60.06
2022-10-05T09:12:10.329Z,60.71
2022-10-05T09:14:56.433Z,61.15
2022-10-05T09:18:10.624Z,61.10
2022-10-05T09:20:54.298Z,59.78
2022-10-05T09:23:38.927Z,58.89
2022-10-05T09:26:43.615Z,57.20
2022-10-05T09:29:29.557Z,57.56
2022-10-05T09:32:19.807Z,57.88
2022-10-05T09:35:34.619Z,57.07
2022-10-05T09:38:20.344Z,58.08
2022-10-05T09:40:56.249Z,58.19
2022-10-05T09:44:00.939Z,56.81
2022-10-05T09:46:40.156Z,56.05
2022-10-05T09:49:20.315Z,55.40
2022-10-05T09:52:32.155Z,55.99
2022-10-05T09:55:31.172Z,54.94
2022-10-05T09:58:14.982Z,54.80
2022-10-05T10:01:09.463Z,53.56
2022-10-05T10:04:10.607Z,53.34
2022-10-05T10:07:16.477Z,53.24
2022-10-05T10:10:04.897Z,53.43
2022-10-05T10:12:31.901Z,53.73
2022-10-05T10:15:11.286Z,52.10
2022-10-05T10:17:53.488Z,52.01
2022-10-05T10:21:06.265Z,51.85
2022-10-05T10:24:03.929Z,51.36
2022-10-05T10:27:03.610Z,51.52
2022-10-05T10:29:51.151Z,51.13
2022-10-05T10:32:21.336Z,51.39
2022-10-05T10:34:57.688Z,51.21
2022-10-05T10:37:58.661Z,51.31
2022-10-05T10:40:53.251Z,52.58
2022-10-05T10:43:45.925Z,51.48
2022-10-05T10:46:50.518Z,51.60
2022-10-05T10:49:55.287Z,52.41
2022-10-05T10:52:28.473Z,52.36
2022-10-05T10:55:17.143Z,50.64
2022-10-05T10:57:53.451Z,50.77
2022-10-05T11:00:49.902Z,49.49
2022-10-05T11:03:55.665Z,47.76
2022-10-05T11:06:50.196Z,49.03
2022-10-05T11:09:35.494Z,48.68
2022-10-05T11:12:41.434Z,47.57
2022-10-05T11:15:26.169Z,46.64
2022-10-05T11:18:11.682Z,46.68
2022-10-05T11:20:57.301Z,45.46
2022-10-05T11:23:54.912Z,45.43
2022-10-05T11:26:37.247Z,44.84
2022-10-05T11:29:34.579Z,45.35
2022-10-05T11:32:40.321Z,44.83
2022-10-05T11:35:35.026Z,44.22
2022-10-05T11:38:08.274Z,43.77
2022-10-05T11:41:03.431Z,44.36
2022-10-05T11:43:53.430Z,42.11
2022-10-05T11:46:26.516Z,43.10
2022-10-05T11:49:25.959Z,43.18
2022-10-05T11:52:14.117Z,43.39
2022-10-05T11:55:16.155Z,44.55
2022-10-05T11:57:49.304Z,44.33
2022-10-05T12:00:24.945Z,44.01
2022-10-05T12:03:21.589Z,44.59
2022-10-05T12:05:58.032Z,43.56
2022-10-05T12:08:37.340Z,44.13
2022-10-05T12:11:16.511Z,44.29
2022-10-05T12:14:15.924Z,42.97
2022-10-05T12:16:58.975Z,41.74
2022-10-05T12:19:30.062Z,42.58
2022-10-05T12:22:23.555Z,40.84
2022-10-05T12:25:18.149Z,42.17
2022-10-05T12:27:49.766Z,42.19
2022-10-05T12:30:28.834Z,42.58
2022-10-05T12:33:17.493Z,42.19
2022-10-05T12:36:05.712Z,39.87
2022-10-05T12:38:50.580Z,39.99
2022-10-05T12:41:36.776Z,40.70
2022-10-05T12:44:35.389Z,41.07
2022-10-05T12:47:44.733Z,41.48
2022-10-05T12:50:33.671Z,41.44
2022-10-05T12:53:22.772Z,42.37
2022-10-05T12:56:15.106Z,41.30
2022-10-05T12:59:29.537Z,41.30
2022-10-05T13:02:25.468Z,41.69
2022-10-05T13:05:15.596Z,40.05
2022-10-05T13:08:07.334Z,40.56
2022-10-05T13:10:37.516Z,38.83
2022-10-05T13:13:23.788Z,39.21
2022-10-05T13:16:03.236Z,39.79
2022-10-05T13:18:40.048Z,40.98
2022-10-05T13:21:12.849Z,40.38
2022-10-05T13:23:45.973Z,40.28
2022-10-05T13:26:21.929Z,40.75
2022-10-05T13:29:24.496Z,40.56
2022-10-05T13:32:00.411Z,40.52
2022-10-05T13:34:40.400Z,39.61
2022-10-05T13:37:26.240Z,38.89
2022-10-05T13:40:33.187Z,39.09
2022-10-05T13:43:06.783Z,39.22
2022-10-05T13:45:45.398Z,39.49
2022-10-05T13:48:41.375Z,39.21
2022-10-05T13:51:37.259Z,39.33
2022-10-05T13:54:42.036Z,39.41
2022-10-05T13:57:33.105Z,40.14
2022-10-05T14:00:27.087Z,40.02
2022-10-05T14:02:56.455Z,40.07
2022-10-05T14:05:29.374Z,40.11
2022-10-05T14:07:56.559Z,40.17
2022-10-05T14:10:40.541Z,40.64
2022-10-05T14:13:45.243Z,39.53
2022-10-05T14:16:12.419Z,40.64
2022-10-05T14:18:53.011Z,40.58
2022-10-05T14:21:31.029Z,40.10
2022-10-05T14:24:46.160Z,37.94
2022-10-05T14:27:21.307Z,38.72
2022-10-05T14:30:08.673Z,37.92
2022-10-05T14:32:59.586Z,38.61
2022-10-05T14:35:31.033Z,37.22
2022-10-05T14:38:01.147Z,38.22
2022-10-05T14:40:30.089Z,37.68
2022-10-05T14:43:00.105Z,38.28
2022-10-05T14:45:31.188Z,39.40
2022-10-05T14:48:01.837Z,39.78
2022-10-05T14:50:31.454Z,39.46
2022-10-05T14:53:21.313Z,39.89
2022-10-05T14:56:46.154Z,39.62
2022-10-05T14:59:38.336Z,40.02
2022-10-05T15:02:52.203Z,40.19
2022-10-05T15:05:45.988Z,40.67
2022-10-05T15:08:28.133Z,40.94
2022-10-05T15:11:21.490Z,40.51
2022-10-05T15:13:49.304Z,40.65
2022-10-05T15:16:38.398Z,40.88
2022-10-05T15:19:22.844Z,40.85
2022-10-05T15:21:55.319Z,41.23
2022-10-05T15:24:49.010Z,41.56
2022-10-05T15:27:45.214Z,41.76
2022-10-05T15:30:18.227Z,42.30
2022-10-05T15:33:05.361Z,42.47
2022-10-05T15:35:49.115Z,42.71
2022-10-05T15:38:22.194Z,43.00
2022-10-05T15:41:17.231Z,43.12
2022-10-05T15:44:22.677Z,44.06
2022-10-05T15:46:58.863Z,44.97
2022-10-05T15:49:37.047Z,45.94
2022-10-05T15:52:31.913Z,46.53
2022-10-05T15:55:17.709Z,46.94
2022-10-05T15:58:08.524Z,46.97
2022-10-05T16:00:49.015Z,46.85
2022-10-05T16:03:27.652Z,47.60
2022-10-05T16:06:18.872Z,47.57
2022-10-05T16:09:09.284Z,47.57
2022-10-05T16:11:54.834Z,47.63
2022-10-05T16:14:35.761Z,48.29
2022-10-05T16:17:18.301Z,49.12
2022-10-05T16:20:14.707Z,49.64
2022-10-05T16:23:05.453Z,50.40
2022-10-05T16:26:10.247Z,51.52
2022-10-05T16:28:53.226Z,51.71
2022-10-05T16:31:49.236Z,52.13
2022-10-05T16:34:50.255Z,52.58
2022-10-05T16:37:38.567Z,53.32
2022-10-05T16:40:30.136Z,53.62
2022-10-05T16:42:57.209Z,54.90
2022-10-05T16:45:48.218Z,55.82
2022-10-05T16:48:28.943Z,56.42
2022-10-05T16:51:18.111Z,56.64
2022-10-05T16:53:56.117Z,57.47
2022-10-05T16:56:28.792Z,58.37
2022-10-05T16:59:29.835Z,58.52
2022-10-05T17:02:24.560Z,58.78
2022-10-05T17:04:58.180Z,59.41
2022-10-05T17:07:35.181Z,60.93
2022-10-05T17:10:29.713Z,67.06
2022-10-05T17:12:56.721Z,63.49
2022-10-05T17:15:54.120Z,62.94
2022-10-05T17:18:29.420Z,63.54
2022-10-05T17:21:12.850Z,62.92
2022-10-05T17:24:39.237Z,62.82
2022-10-05T17:27:32.937Z,62.99
2022-10-05T17:30:28.492Z,63.48
2022-10-05T17:33:14.750Z,63.44
2022-10-05T17:36:03.329Z,63.40
2022-10-05T17:38:30.405Z,63.36
2022-10-05T17:41:00.509Z,63.67
2022-10-05T17:43:30.884Z,64.41
2022-10-05T17:46:03.920Z,65.18
2022-10-05T17:48:42.864Z,65.31
2022-10-05T17:51:36.061Z,64.55
2022-10-05T17:54:39.277Z,64.91
2022-10-05T17:57:06.619Z,65.16
2022-10-05T17:59:54.052Z,67.35
2022-10-05T18:02:40.772Z,67.73
2022-10-05T18:05:15.390Z,68.04
2022-10-05T18:07:48.801Z,68.07
2022-10-05T18:10:30.023Z,68.38
2022-10-05T18:13:00.325Z,69.05
2022-10-05T18:15:27.341Z,69.19
2022-10-05T18:18:32.375Z,68.79
2022-10-05T18:21:20.514Z,68.49
2022-10-05T18:24:00.395Z,69.18
2022-10-05T18:27:12.799Z,68.91
2022-10-05T18:30:03.959Z,69.46
2022-10-05T18:32:53.617Z,69.02
2022-10-05T18:35:56.243Z,69.16
2022-10-05T18:38:53.225Z,69.89
2022-10-05T18:41:32.560Z,70.53
2022-10-05T18:44:14.397Z,70.11
2022-10-05T18:46:56.256Z,69.69
2022-10-05T18:49:51.936Z,69.40
2022-10-05T18:53:06.145Z,69.48
2022-10-05T18:55:43.918Z,69.54
2022-10-05T18:58:22.455Z,69.35
2022-10-05T19:01:11.266Z,69.84
2022-10-05T19:03:41.616Z,69.35
2022-10-05T19:06:12.957Z,69.52
2022-10-05T19:09:18.794Z,69.06
2022-10-05T19:11:49.873Z,69.20
2022-10-05T19:14:37.332Z,69.39
2022-10-05T19:17:25.836Z,69.60
2022-10-05T19:20:35.736Z,70.82
2022-10-05T19:23:18.858Z,71.64
2022-10-05T19:25:55.029Z,71.77
2022-10-05T19:28:41.378Z,71.26
2022-10-05T19:31:11.448Z,70.57
2022-10-05T19:33:44.685Z,70.82
2022-10-05T19:36:17.898Z,71.99
2022-10-05T19:39:08.191Z,71.89
2022-10-05T19:42:13.964Z,71.51
2022-10-05T19:45:02.777Z,71.85
2022-10-05T19:47:54.925Z,71.21
2022-10-05T19:50:33.816Z,71.41
2022-10-05T19:53:24.395Z,71.81
2022-10-05T19:55:51.711Z,72.29
2022-10-05T19:58:21.000Z,72.43
2022-10-05T20:01:02.485Z,72.54
2022-10-05T20:03:32.450Z,73.39
2022-10-05T20:06:02.067Z,72.93
2022-10-05T20:08:39.440Z,73.88
2022-10-05T20:11:13.952Z,73.60
2022-10-05T20:13:44.570Z,74.46
2022-10-05T20:16:36.389Z,74.57
2022-10-05T20:19:24.137Z,74.33
2022-10-05T20:21:56.879Z,74.44
2022-10-05T20:24:26.577Z,75.66
2022-10-05T20:27:02.840Z,75.07
2022-10-05T20:29:35.623Z,75.10
2022-10-05T20:32:12.391Z,74.43
2022-10-05T20:34:41.785Z,74.89
2022-10-05T20:37:14.361Z,74.24
2022-10-05T20:39:42.033Z,73.88
2022-10-05T20:42:10.806Z,73.59
2022-10-05T20:44:38.432Z,73.58
2022-10-05T20:47:09.562Z,73.27
2022-10-05T20:49:39.218Z,73.79
2022-10-05T20:52:09.877Z,73.35
2022-10-05T20:54:38.511Z,73.03
2022-10-05T20:57:07.323Z,73.44
2022-10-05T20:59:35.672Z,73.91
2022-10-05T21:02:03.926Z,73.96
2022-10-05T21:04:40.374Z,73.68
2022-10-05T21:07:08.913Z,73.78
2022-10-05T21:09:38.551Z,73.78
2022-10-05T21:12:05.835Z,73.86
2022-10-05T21:14:36.358Z,74.07
2022-10-05T21:17:05.259Z,73.90
2022-10-05T21:19:38.321Z,73.96
2022-10-05T21:22:10.016Z,74.03
2022-10-05T21:24:38.714Z,73.99
2022-10-05T21:27:06.567Z,74.47
2022-10-05T21:29:35.629Z,74.37
2022-10-05T21:32:03.207Z,74.52
2022-10-05T21:34:30.398Z,74.48
2022-10-05T21:36:57.531Z,74.55
2022-10-05T21:39:25.370Z,74.09
2022-10-05T21:41:52.706Z,73.98
2022-10-05T21:44:20.162Z,75.00
2022-10-05T21:46:50.447Z,75.41
2022-10-05T21:49:20.042Z,75.75
2022-10-05T21:51:48.171Z,75.81
2022-10-05T21:54:20.215Z,75.68
2022-10-05T21:56:52.917Z,75.46
2022-10-05T21:59:24.278Z,75.91
2022-10-05T22:01:51.883Z,76.52
2022-10-05T22:04:19.078Z,76.96
2022-10-05T22:06:46.148Z,77.70
2022-10-05T22:09:13.408Z,77.09
2022-10-05T22:11:40.652Z,77.28
2022-10-05T22:14:07.867Z,76.85
2022-10-05T22:16:38.627Z,76.89
2022-10-05T22:19:11.631Z,76.98
2022-10-05T22:21:41.815Z,77.49
2022-10-05T22:24:11.686Z,77.77
2022-10-05T22:26:40.464Z,79.34
2022-10-05T22:29:07.687Z,79.23
2022-10-05T22:31:35.265Z,79.56
2022-10-05T22:34:02.393Z,78.91
2022-10-05T22:36:29.707Z,78.58
2022-10-05T22:38:56.852Z,78.15
2022-10-05T22:41:24.038Z,77.83
2022-10-05T22:43:51.965Z,77.54
2022-10-05T22:46:20.034Z,77.06
2022-10-05T22:48:48.201Z,77.04
2022-10-05T22:51:15.226Z,77.09
2022-10-05T22:53:42.544Z,77.27
2022-10-05T22:56:12.999Z,77.80
2022-10-05T22:58:41.641Z,77.85
2022-10-05T23:01:14.882Z,77.79
2022-10-05T23:03:42.517Z,77.93
2022-10-05T23:06:18.380Z,79.46
2022-10-05T23:08:46.212Z,80.35
2022-10-05T23:11:16.316Z,80.30
2022-10-05T23:13:43.872Z,79.84
2022-10-05T23:16:12.314Z,79.35
2022-10-05T23:18:40.577Z,79.64
2022-10-05T23:21:09.814Z,79.30
2022-10-05T23:23:38.569Z,80.19
2022-10-05T23:26:08.007Z,80.02
2022-10-05T23:28:35.202Z,79.90
2022-10-05T23:31:05.042Z,79.85
2022-10-05T23:33:32.319Z,79.78
2022-10-05T23:36:06.215Z,79.77
2022-10-05T23:38:35.028Z,79.84
2022-10-05T23:41:02.806Z,79.81
2022-10-05T23:43:30.191Z,80.43
2022-10-05T23:45:58.181Z,81.38
2022-10-05T23:48:27.004Z,81.99
2022-10-05T23:50:55.849Z,81.59
2022-10-05T23:53:23.360Z,81.50
2022-10-05T23:55:54.653Z,81.56
2022-10-05T23:58:23.120Z,82.11
